ZKEAN NZAR-NZAR

Flight info

Callsign ZKEAN
Flight time 0h 24m
Altitude 8000
Route HUNTY
Aircraft DA42/L-SBDGRY/S

Departure

Time 2026-04-29 04:35
Airport Ardmore Airport (NZAR)

Arrival

Time 2026-04-29 05:00
Airport Ardmore Airport (NZAR)
Time Latitude Longitude Altitude Speed Heading
2026-04-29 04:26 -37.03632 174.96996 106 ft 0 kts 47°
2026-04-29 04:32 -37.03610 174.96996 106 ft 9 kts 309°
2026-04-29 04:33 -37.03593 174.96973 106 ft 6 kts 314°
2026-04-29 04:33 -37.03539 174.96930 107 ft 10 kts 339°
2026-04-29 04:33 -37.03494 174.96924 107 ft 0 kts 44°
2026-04-29 04:34 -37.03459 174.96969 107 ft 33 kts 46°
2026-04-29 04:34 -37.03145 174.97369 130 ft 88 kts 44°
2026-04-29 04:35 -37.02687 174.97904 507 ft 88 kts 34°
2026-04-29 04:35 -37.01900 174.98631 671 ft 122 kts 37°
2026-04-29 04:35 -37.01289 174.99406 768 ft 130 kts 63°
2026-04-29 04:35 -37.01067 175.00494 957 ft 128 kts 91°
2026-04-29 04:36 -37.01157 175.01224 1128 ft 125 kts 110°
2026-04-29 04:36 -37.01613 175.02107 1376 ft 120 kts 127°
2026-04-29 04:36 -37.02120 175.02927 1632 ft 118 kts 128°
2026-04-29 04:36 -37.02620 175.03730 1882 ft 116 kts 128°
2026-04-29 04:37 -37.03134 175.04537 1995 ft 126 kts 134°
2026-04-29 04:37 -37.03894 175.05191 2008 ft 139 kts 150°
2026-04-29 04:37 -37.04763 175.05809 2006 ft 146 kts 151°
2026-04-29 04:37 -37.05662 175.06439 2007 ft 150 kts 152°
2026-04-29 04:38 -37.06572 175.07074 2007 ft 149 kts 151°
2026-04-29 04:38 -37.07474 175.07710 2008 ft 148 kts 151°
2026-04-29 04:38 -37.08375 175.08341 2008 ft 148 kts 152°
2026-04-29 04:38 -37.09253 175.08958 2161 ft 141 kts 151°
2026-04-29 04:39 -37.10124 175.09465 2357 ft 139 kts 162°
2026-04-29 04:39 -37.11036 175.09834 2555 ft 137 kts 163°
2026-04-29 04:39 -37.11942 175.10194 2764 ft 136 kts 163°
2026-04-29 04:39 -37.12845 175.10549 2967 ft 136 kts 163°
2026-04-29 04:40 -37.13749 175.10906 3171 ft 136 kts 163°
2026-04-29 04:40 -37.14655 175.11268 3379 ft 137 kts 163°
2026-04-29 04:40 -37.15562 175.11632 3579 ft 137 kts 163°
2026-04-29 04:40 -37.16473 175.12000 3781 ft 138 kts 163°
2026-04-29 04:41 -37.17387 175.12370 3981 ft 138 kts 163°
2026-04-29 04:41 -37.18304 175.12740 4182 ft 139 kts 163°
2026-04-29 04:41 -37.19220 175.13112 4386 ft 138 kts 163°
2026-04-29 04:41 -37.20159 175.13252 4583 ft 137 kts 196°
2026-04-29 04:42 -37.21032 175.12788 4798 ft 136 kts 207°
2026-04-29 04:42 -37.21871 175.12261 4995 ft 137 kts 208°
2026-04-29 04:42 -37.22824 175.11925 5008 ft 150 kts 182°
2026-04-29 04:42 -37.23875 175.12182 5009 ft 158 kts 159°
2026-04-29 04:43 -37.24859 175.12812 5010 ft 160 kts 152°
2026-04-29 04:43 -37.25821 175.13511 5009 ft 160 kts 151°
2026-04-29 04:43 -37.26788 175.14211 5009 ft 161 kts 151°
2026-04-29 04:43 -37.27759 175.14905 5009 ft 161 kts 152°
2026-04-29 04:44 -37.28737 175.15602 5009 ft 161 kts 152°
2026-04-29 04:44 -37.29714 175.16294 5009 ft 161 kts 152°
2026-04-29 04:44 -37.30689 175.16988 5011 ft 161 kts 152°
2026-04-29 04:44 -37.31663 175.17686 5009 ft 161 kts 151°
2026-04-29 04:45 -37.32632 175.18380 5010 ft 160 kts 152°
2026-04-29 04:45 -37.33657 175.18848 5002 ft 157 kts 180°
2026-04-29 04:45 -37.34641 175.18398 5005 ft 154 kts 223°
2026-04-29 04:45 -37.35112 175.17232 5006 ft 152 kts 265°
2026-04-29 04:46 -37.34812 175.15999 5009 ft 151 kts 308°
2026-04-29 04:46 -37.33980 175.15200 5017 ft 151 kts 327°
2026-04-29 04:46 -37.33084 175.14525 5018 ft 150 kts 328°
2026-04-29 04:46 -37.32183 175.13862 5018 ft 150 kts 328°
2026-04-29 04:47 -37.31279 175.13203 5017 ft 150 kts 328°
2026-04-29 04:47 -37.30378 175.12547 5019 ft 150 kts 328°
2026-04-29 04:47 -37.29455 175.11873 4831 ft 157 kts 328°
2026-04-29 04:47 -37.28495 175.11171 4576 ft 162 kts 328°
2026-04-29 04:48 -37.27512 175.10448 4321 ft 165 kts 328°
2026-04-29 04:48 -37.26549 175.09738 4070 ft 153 kts 329°
2026-04-29 04:48 -37.25703 175.09121 4011 ft 130 kts 328°
2026-04-29 04:48 -37.24939 175.08568 4008 ft 126 kts 330°
2026-04-29 04:49 -37.24152 175.08101 3998 ft 126 kts 346°
2026-04-29 04:49 -37.23250 175.07977 3834 ft 138 kts 355°
2026-04-29 04:49 -37.22259 175.07902 3611 ft 148 kts 355°
2026-04-29 04:49 -37.21214 175.07825 3384 ft 153 kts 355°
2026-04-29 04:50 -37.20160 175.07747 3153 ft 155 kts 355°
2026-04-29 04:50 -37.19086 175.07669 2925 ft 154 kts 355°
2026-04-29 04:50 -37.18017 175.07591 2697 ft 154 kts 355°
2026-04-29 04:50 -37.16950 175.07510 2473 ft 153 kts 355°
2026-04-29 04:51 -37.15890 175.07428 2237 ft 150 kts 355°
2026-04-29 04:51 -37.14869 175.07347 2016 ft 144 kts 354°
2026-04-29 04:51 -37.14004 175.06887 1995 ft 130 kts 333°
2026-04-29 04:51 -37.13141 175.06664 1998 ft 124 kts 354°
2026-04-29 04:52 -37.12291 175.06585 1997 ft 121 kts 355°
2026-04-29 04:52 -37.11459 175.06516 1994 ft 119 kts 355°
2026-04-29 04:52 -37.10641 175.06446 1992 ft 117 kts 355°
2026-04-29 04:52 -37.09832 175.06377 1991 ft 116 kts 355°
2026-04-29 04:53 -37.09022 175.06311 1993 ft 117 kts 355°
2026-04-29 04:53 -37.08196 175.06239 1943 ft 124 kts 355°
2026-04-29 04:53 -37.07296 175.06162 1792 ft 134 kts 355°
2026-04-29 04:53 -37.06358 175.06077 1643 ft 139 kts 355°
2026-04-29 04:54 -37.05381 175.05989 1503 ft 141 kts 355°
2026-04-29 04:54 -37.04471 175.05674 1492 ft 134 kts 323°
2026-04-29 04:54 -37.03966 175.04740 1495 ft 129 kts 292°
2026-04-29 04:54 -37.03649 175.03711 1490 ft 122 kts 290°
2026-04-29 04:55 -37.03465 175.02714 1493 ft 114 kts 277°
2026-04-29 04:55 -37.03380 175.01752 1488 ft 109 kts 276°
2026-04-29 04:55 -37.03303 175.00823 1487 ft 106 kts 276°
2026-04-29 04:55 -37.03230 174.99923 1487 ft 102 kts 276°
2026-04-29 04:56 -37.03158 174.99046 1486 ft 100 kts 276°
2026-04-29 04:56 -37.03090 174.98183 1487 ft 99 kts 276°
2026-04-29 04:56 -37.03023 174.97331 1480 ft 98 kts 276°
2026-04-29 04:56 -37.02950 174.96491 1479 ft 97 kts 278°
2026-04-29 04:57 -37.02575 174.95837 1440 ft 100 kts 339°
2026-04-29 04:57 -37.01921 174.96047 1369 ft 106 kts 48°
2026-04-29 04:57 -37.01694 174.96875 1401 ft 101 kts 82°
2026-04-29 04:57 -37.01563 174.97735 1382 ft 99 kts 67°
2026-04-29 04:58 -37.01225 174.98435 1090 ft 94 kts 53°
2026-04-29 04:58 -37.00944 174.99095 894 ft 73 kts 83°
2026-04-29 04:58 -37.01281 174.99705 783 ft 102 kts 162°
2026-04-29 04:58 -37.01794 174.99302 799 ft 93 kts 254°
2026-04-29 04:59 -37.02122 174.98692 424 ft 82 kts 227°
2026-04-29 04:59 -37.02497 174.98206 221 ft 79 kts 225°
2026-04-29 04:59 -37.02558 174.98127 190 ft 75 kts 227°
2026-04-29 04:59 -37.02745 174.97882 118 ft 72 kts 223°
2026-04-29 05:00 -37.03019 174.97534 109 ft 42 kts 224°
2026-04-29 05:00 -37.03191 174.97316 109 ft 29 kts 227°
2026-04-29 05:00 -37.03320 174.97160 108 ft 22 kts 223°
2026-04-29 05:00 -37.03417 174.97037 107 ft 18 kts 229°
2026-04-29 05:01 -37.03499 174.96932 107 ft 15 kts 210°
2026-04-29 05:01 -37.03561 174.96941 107 ft 8 kts 160°
2026-04-29 05:01 -37.03604 174.96976 106 ft 2 kts 144°
2026-04-29 05:01 -37.03625 174.97008 106 ft 7 kts 99°
2026-04-29 05:02 -37.03622 174.97030 106 ft 0 kts 41°